sensor_id;sensor_type;location;lat;lon;timestamp;pressure;altitude;pressure_sealevel;temperature;humidity
71485;BME280;59300;52.074;4.758;2022-08-03T00:00:26;101533.09;;;18.95;85.99
71485;BME280;59300;52.074;4.758;2022-08-03T00:03:28;101532.16;;;18.96;85.45
71485;BME280;59300;52.074;4.758;2022-08-03T00:06:29;101526.28;;;18.88;85.96
71485;BME280;59300;52.074;4.758;2022-08-03T00:09:37;101520.00;;;18.89;86.29
71485;BME280;59300;52.074;4.758;2022-08-03T00:12:38;101525.81;;;18.97;85.81
71485;BME280;59300;52.074;4.758;2022-08-03T00:15:41;101520.94;;;18.88;86.61
71485;BME280;59300;52.074;4.758;2022-08-03T00:18:43;101521.72;;;18.90;86.53
71485;BME280;59300;52.074;4.758;2022-08-03T00:21:44;101524.63;;;18.85;86.92
71485;BME280;59300;52.074;4.758;2022-08-03T00:24:46;101525.13;;;18.94;86.78
71485;BME280;59300;52.074;4.758;2022-08-03T00:27:47;101522.81;;;18.86;86.96
71485;BME280;59300;52.074;4.758;2022-08-03T00:30:51;101519.53;;;18.81;87.14
71485;BME280;59300;52.074;4.758;2022-08-03T00:33:52;101511.75;;;18.76;87.52
71485;BME280;59300;52.074;4.758;2022-08-03T00:37:00;101514.63;;;18.71;87.69
71485;BME280;59300;52.074;4.758;2022-08-03T00:40:02;101516.56;;;18.69;88.03
71485;BME280;59300;52.074;4.758;2022-08-03T00:43:06;101512.59;;;18.59;88.86
71485;BME280;59300;52.074;4.758;2022-08-03T00:46:08;101505.59;;;18.56;89.02
71485;BME280;59300;52.074;4.758;2022-08-03T00:49:10;101506.94;;;18.65;88.63
71485;BME280;59300;52.074;4.758;2022-08-03T00:52:12;101511.75;;;18.58;88.89
71485;BME280;59300;52.074;4.758;2022-08-03T00:55:15;101505.69;;;18.55;89.70
71485;BME280;59300;52.074;4.758;2022-08-03T00:58:17;101505.22;;;18.47;89.84
71485;BME280;59300;52.074;4.758;2022-08-03T01:01:18;101507.13;;;18.45;90.59
71485;BME280;59300;52.074;4.758;2022-08-03T01:04:20;101503.66;;;18.42;90.77
71485;BME280;59300;52.074;4.758;2022-08-03T01:08:01;101500.66;;;18.31;92.29
71485;BME280;59300;52.074;4.758;2022-08-03T01:11:16;101503.47;;;18.28;94.14
71485;BME280;59300;52.074;4.758;2022-08-03T01:14:26;101490.41;;;18.22;94.71
71485;BME280;59300;52.074;4.758;2022-08-03T01:17:49;101494.06;;;18.21;95.06
71485;BME280;59300;52.074;4.758;2022-08-03T01:20:55;101488.53;;;18.24;94.92
71485;BME280;59300;52.074;4.758;2022-08-03T01:27:17;101491.38;;;18.21;95.48
71485;BME280;59300;52.074;4.758;2022-08-03T01:30:19;101494.50;;;18.11;95.77
71485;BME280;59300;52.074;4.758;2022-08-03T01:33:23;101499.44;;;18.02;96.43
71485;BME280;59300;52.074;4.758;2022-08-03T01:36:32;101494.81;;;18.05;96.60
71485;BME280;59300;52.074;4.758;2022-08-03T01:39:35;101489.75;;;17.99;96.61
71485;BME280;59300;52.074;4.758;2022-08-03T01:42:39;101500.53;;;17.96;96.92
71485;BME280;59300;52.074;4.758;2022-08-03T01:45:42;101489.09;;;17.94;97.59
71485;BME280;59300;52.074;4.758;2022-08-03T01:48:45;101489.31;;;17.89;97.18
71485;BME280;59300;52.074;4.758;2022-08-03T01:51:48;101490.47;;;17.84;97.65
71485;BME280;59300;52.074;4.758;2022-08-03T01:55:06;101492.19;;;17.85;97.94
71485;BME280;59300;52.074;4.758;2022-08-03T01:58:09;101494.09;;;17.83;97.96
71485;BME280;59300;52.074;4.758;2022-08-03T02:01:13;101490.63;;;17.80;98.57
71485;BME280;59300;52.074;4.758;2022-08-03T02:04:17;101490.91;;;17.74;98.35
71485;BME280;59300;52.074;4.758;2022-08-03T02:07:19;101491.22;;;17.68;99.05
71485;BME280;59300;52.074;4.758;2022-08-03T02:10:21;101491.84;;;17.73;98.98
71485;BME280;59300;52.074;4.758;2022-08-03T02:13:37;101483.84;;;17.73;99.09
71485;BME280;59300;52.074;4.758;2022-08-03T02:16:38;101484.94;;;17.69;99.18
71485;BME280;59300;52.074;4.758;2022-08-03T02:19:41;101482.41;;;17.66;99.34
71485;BME280;59300;52.074;4.758;2022-08-03T02:22:44;101474.63;;;17.61;99.23
71485;BME280;59300;52.074;4.758;2022-08-03T02:25:52;101472.75;;;17.63;99.12
71485;BME280;59300;52.074;4.758;2022-08-03T02:28:55;101477.06;;;17.66;99.45
71485;BME280;59300;52.074;4.758;2022-08-03T02:32:01;101469.91;;;17.66;99.54
71485;BME280;59300;52.074;4.758;2022-08-03T02:35:06;101467.41;;;17.63;99.33
71485;BME280;59300;52.074;4.758;2022-08-03T02:38:12;101461.19;;;17.63;99.51
71485;BME280;59300;52.074;4.758;2022-08-03T02:41:17;101464.66;;;17.65;99.57
71485;BME280;59300;52.074;4.758;2022-08-03T02:44:24;101456.88;;;17.60;99.55
71485;BME280;59300;52.074;4.758;2022-08-03T02:47:27;101461.34;;;17.60;99.61
71485;BME280;59300;52.074;4.758;2022-08-03T02:50:52;101465.91;;;17.58;99.54
71485;BME280;59300;52.074;4.758;2022-08-03T02:53:54;101463.25;;;17.58;99.62
71485;BME280;59300;52.074;4.758;2022-08-03T02:56:56;101458.19;;;17.52;99.28
71485;BME280;59300;52.074;4.758;2022-08-03T03:00:00;101455.88;;;17.44;100.00
71485;BME280;59300;52.074;4.758;2022-08-03T03:03:03;101460.13;;;17.48;99.99
71485;BME280;59300;52.074;4.758;2022-08-03T03:06:06;101452.97;;;17.48;100.00
71485;BME280;59300;52.074;4.758;2022-08-03T03:09:09;101451.56;;;17.41;100.00
71485;BME280;59300;52.074;4.758;2022-08-03T03:12:12;101455.03;;;17.43;100.00
71485;BME280;59300;52.074;4.758;2022-08-03T03:15:14;101451.59;;;17.40;100.00
71485;BME280;59300;52.074;4.758;2022-08-03T03:18:16;101453.78;;;17.31;100.00
71485;BME280;59300;52.074;4.758;2022-08-03T03:21:23;101459.19;;;17.30;100.00
71485;BME280;59300;52.074;4.758;2022-08-03T03:24:27;101460.75;;;17.34;100.00
71485;BME280;59300;52.074;4.758;2022-08-03T03:27:30;101452.72;;;17.35;100.00
71485;BME280;59300;52.074;4.758;2022-08-03T03:30:33;101452.03;;;17.30;100.00
71485;BME280;59300;52.074;4.758;2022-08-03T03:33:35;101457.91;;;17.19;100.00
71485;BME280;59300;52.074;4.758;2022-08-03T03:36:37;101459.41;;;17.25;100.00
71485;BME280;59300;52.074;4.758;2022-08-03T03:39:39;101459.59;;;17.20;100.00
71485;BME280;59300;52.074;4.758;2022-08-03T03:42:40;101457.38;;;17.11;100.00
71485;BME280;59300;52.074;4.758;2022-08-03T03:45:42;101458.16;;;17.13;100.00
71485;BME280;59300;52.074;4.758;2022-08-03T03:48:44;101453.13;;;17.07;100.00
71485;BME280;59300;52.074;4.758;2022-08-03T03:51:45;101462.06;;;17.06;100.00
71485;BME280;59300;52.074;4.758;2022-08-03T03:54:47;101462.84;;;17.08;100.00
71485;BME280;59300;52.074;4.758;2022-08-03T03:57:49;101458.72;;;17.01;100.00
71485;BME280;59300;52.074;4.758;2022-08-03T04:00:50;101465.72;;;17.03;100.00
71485;BME280;59300;52.074;4.758;2022-08-03T04:03:52;101467.53;;;17.03;100.00
71485;BME280;59300;52.074;4.758;2022-08-03T04:06:53;101471.25;;;16.99;100.00
71485;BME280;59300;52.074;4.758;2022-08-03T04:09:56;101468.66;;;16.97;100.00
71485;BME280;59300;52.074;4.758;2022-08-03T04:12:59;101466.50;;;17.06;100.00
71485;BME280;59300;52.074;4.758;2022-08-03T04:16:03;101468.34;;;17.05;100.00
71485;BME280;59300;52.074;4.758;2022-08-03T04:19:08;101467.53;;;17.03;100.00
71485;BME280;59300;52.074;4.758;2022-08-03T04:22:13;101466.25;;;17.12;100.00
71485;BME280;59300;52.074;4.758;2022-08-03T04:25:19;101470.44;;;17.17;100.00
71485;BME280;59300;52.074;4.758;2022-08-03T04:28:23;101459.59;;;17.20;100.00
71485;BME280;59300;52.074;4.758;2022-08-03T04:31:32;101462.00;;;17.27;100.00
71485;BME280;59300;52.074;4.758;2022-08-03T04:34:35;101474.91;;;17.36;100.00
71485;BME280;59300;52.074;4.758;2022-08-03T04:37:48;101473.16;;;17.35;100.00
71485;BME280;59300;52.074;4.758;2022-08-03T04:40:51;101473.34;;;17.32;100.00
71485;BME280;59300;52.074;4.758;2022-08-03T04:43:55;101475.22;;;17.30;100.00
71485;BME280;59300;52.074;4.758;2022-08-03T04:46:58;101476.94;;;17.31;100.00
71485;BME280;59300;52.074;4.758;2022-08-03T04:50:01;101478.69;;;17.32;100.00
71485;BME280;59300;52.074;4.758;2022-08-03T04:53:07;101473.38;;;17.30;100.00
71485;BME280;59300;52.074;4.758;2022-08-03T04:56:09;101476.78;;;17.34;100.00
71485;BME280;59300;52.074;4.758;2022-08-03T04:59:11;101481.97;;;17.37;100.00
71485;BME280;59300;52.074;4.758;2022-08-03T05:02:13;101488.03;;;17.41;100.00
71485;BME280;59300;52.074;4.758;2022-08-03T05:05:16;101488.91;;;17.41;100.00
71485;BME280;59300;52.074;4.758;2022-08-03T05:08:19;101490.78;;;17.39;100.00
71485;BME280;59300;52.074;4.758;2022-08-03T05:11:28;101489.94;;;17.39;100.00
71485;BME280;59300;52.074;4.758;2022-08-03T05:14:30;101495.19;;;17.40;100.00
71485;BME280;59300;52.074;4.758;2022-08-03T05:17:32;101499.59;;;17.41;100.00
71485;BME280;59300;52.074;4.758;2022-08-03T05:20:33;101505.38;;;17.51;99.97
71485;BME280;59300;52.074;4.758;2022-08-03T05:23:35;101507.72;;;17.57;99.98
71485;BME280;59300;52.074;4.758;2022-08-03T05:26:36;101507.22;;;17.68;99.66
71485;BME280;59300;52.074;4.758;2022-08-03T05:29:38;101502.31;;;17.78;99.38
71485;BME280;59300;52.074;4.758;2022-08-03T05:32:40;101511.41;;;17.93;97.87
71485;BME280;59300;52.074;4.758;2022-08-03T05:35:41;101504.66;;;18.22;96.44
71485;BME280;59300;52.074;4.758;2022-08-03T05:39:03;101511.69;;;19.94;88.03
71485;BME280;59300;52.074;4.758;2022-08-03T05:42:04;101501.97;;;20.69;82.14
71485;BME280;59300;52.074;4.758;2022-08-03T05:45:06;101496.94;;;22.07;75.34
71485;BME280;59300;52.074;4.758;2022-08-03T05:48:08;101501.41;;;22.62;73.54
71485;BME280;59300;52.074;4.758;2022-08-03T05:51:10;101501.63;;;23.36;68.70
71485;BME280;59300;52.074;4.758;2022-08-03T05:54:13;101505.06;;;22.74;71.51
71485;BME280;59300;52.074;4.758;2022-08-03T05:57:14;101504.63;;;23.06;70.89
71485;BME280;59300;52.074;4.758;2022-08-03T06:00:16;101503.34;;;23.11;70.17
71485;BME280;59300;52.074;4.758;2022-08-03T06:03:19;101503.97;;;22.89;71.41
71485;BME280;59300;52.074;4.758;2022-08-03T06:06:22;101502.25;;;22.62;71.47
71485;BME280;59300;52.074;4.758;2022-08-03T06:09:24;101501.84;;;22.94;71.09
71485;BME280;59300;52.074;4.758;2022-08-03T06:12:45;101500.13;;;22.93;71.21
71485;BME280;59300;52.074;4.758;2022-08-03T06:15:47;101498.28;;;23.07;70.15
71485;BME280;59300;52.074;4.758;2022-08-03T06:18:48;101499.41;;;22.11;73.82
71485;BME280;59300;52.074;4.758;2022-08-03T06:21:50;101501.06;;;21.71;76.30
71485;BME280;59300;52.074;4.758;2022-08-03T06:24:51;101497.63;;;21.69;76.67
71485;BME280;59300;52.074;4.758;2022-08-03T06:27:55;101496.66;;;21.56;76.89
71485;BME280;59300;52.074;4.758;2022-08-03T06:30:56;101497.03;;;21.78;75.39
71485;BME280;59300;52.074;4.758;2022-08-03T06:33:58;101495.91;;;21.68;77.15
71485;BME280;59300;52.074;4.758;2022-08-03T06:37:19;101499.97;;;21.61;77.25
71485;BME280;59300;52.074;4.758;2022-08-03T06:40:22;101502.69;;;22.01;74.56
71485;BME280;59300;52.074;4.758;2022-08-03T06:43:26;101515.88;;;21.35;77.76
71485;BME280;59300;52.074;4.758;2022-08-03T06:46:28;101513.00;;;21.94;75.96
71485;BME280;59300;52.074;4.758;2022-08-03T06:49:29;101515.47;;;21.56;76.97
71485;BME280;59300;52.074;4.758;2022-08-03T06:52:31;101516.78;;;21.48;77.32
71485;BME280;59300;52.074;4.758;2022-08-03T06:55:38;101512.03;;;21.10;78.48
71485;BME280;59300;52.074;4.758;2022-08-03T06:58:42;101515.47;;;20.98;79.08
71485;BME280;59300;52.074;4.758;2022-08-03T07:01:44;101520.06;;;21.54;77.18
71485;BME280;59300;52.074;4.758;2022-08-03T07:04:47;101522.66;;;21.70;76.23
71485;BME280;59300;52.074;4.758;2022-08-03T07:07:49;101519.84;;;21.86;75.90
71485;BME280;59300;52.074;4.758;2022-08-03T07:10:50;101525.63;;;22.07;75.22
71485;BME280;59300;52.074;4.758;2022-08-03T07:13:52;101521.59;;;22.27;73.12
71485;BME280;59300;52.074;4.758;2022-08-03T07:16:53;101522.19;;;22.32;73.25
71485;BME280;59300;52.074;4.758;2022-08-03T07:19:55;101523.56;;;22.65;70.92
71485;BME280;59300;52.074;4.758;2022-08-03T07:22:56;101539.06;;;23.52;68.16
71485;BME280;59300;52.074;4.758;2022-08-03T07:25:58;101532.03;;;24.37;65.22
71485;BME280;59300;52.074;4.758;2022-08-03T07:28:59;101541.06;;;25.19;62.21
71485;BME280;59300;52.074;4.758;2022-08-03T07:32:02;101543.53;;;25.56;59.80
71485;BME280;59300;52.074;4.758;2022-08-03T07:35:05;101549.88;;;26.00;58.76
71485;BME280;59300;52.074;4.758;2022-08-03T07:38:09;101556.03;;;25.80;58.94
71485;BME280;59300;52.074;4.758;2022-08-03T07:41:10;101553.91;;;26.50;56.58
71485;BME280;59300;52.074;4.758;2022-08-03T07:44:12;101548.16;;;26.11;58.31
71485;BME280;59300;52.074;4.758;2022-08-03T07:47:22;101548.50;;;26.50;56.25
71485;BME280;59300;52.074;4.758;2022-08-03T07:50:24;101552.50;;;26.88;54.61
71485;BME280;59300;52.074;4.758;2022-08-03T07:53:26;101552.44;;;26.78;55.38
71485;BME280;59300;52.074;4.758;2022-08-03T07:56:28;101557.69;;;27.01;54.71
71485;BME280;59300;52.074;4.758;2022-08-03T07:59:29;101547.44;;;27.05;54.39
71485;BME280;59300;52.074;4.758;2022-08-03T08:02:50;101559.59;;;26.68;55.41
71485;BME280;59300;52.074;4.758;2022-08-03T08:05:52;101561.97;;;26.61;55.87
71485;BME280;59300;52.074;4.758;2022-08-03T08:08:53;101557.63;;;26.91;54.91
71485;BME280;59300;52.074;4.758;2022-08-03T08:11:55;101569.84;;;26.53;56.29
71485;BME280;59300;52.074;4.758;2022-08-03T08:14:57;101566.03;;;26.88;54.04
71485;BME280;59300;52.074;4.758;2022-08-03T08:17:59;101573.78;;;27.96;52.79
71485;BME280;59300;52.074;4.758;2022-08-03T08:21:01;101569.81;;;27.49;53.22
71485;BME280;59300;52.074;4.758;2022-08-03T08:24:04;101568.03;;;27.17;54.50
71485;BME280;59300;52.074;4.758;2022-08-03T08:27:16;101549.50;;;26.91;54.25
71485;BME280;59300;52.074;4.758;2022-08-03T08:30:20;101564.22;;;27.51;53.04
71485;BME280;59300;52.074;4.758;2022-08-03T08:33:22;101564.56;;;28.18;50.88
71485;BME280;59300;52.074;4.758;2022-08-03T08:36:24;101564.00;;;28.24;50.92
71485;BME280;59300;52.074;4.758;2022-08-03T08:39:26;101561.00;;;28.17;52.01
71485;BME280;59300;52.074;4.758;2022-08-03T08:42:27;101570.31;;;27.74;52.70
71485;BME280;59300;52.074;4.758;2022-08-03T08:45:29;101568.44;;;28.35;50.83
71485;BME280;59300;52.074;4.758;2022-08-03T08:48:31;101559.41;;;29.03;49.29
71485;BME280;59300;52.074;4.758;2022-08-03T08:51:33;101562.44;;;28.22;51.17
71485;BME280;59300;52.074;4.758;2022-08-03T08:55:00;101558.47;;;27.75;53.21
71485;BME280;59300;52.074;4.758;2022-08-03T08:58:04;101552.84;;;28.27;50.67
71485;BME280;59300;52.074;4.758;2022-08-03T09:01:06;101560.59;;;28.22;51.11
71485;BME280;59300;52.074;4.758;2022-08-03T09:04:08;101559.22;;;27.97;51.79
71485;BME280;59300;52.074;4.758;2022-08-03T09:07:09;101567.44;;;28.16;51.92
71485;BME280;59300;52.074;4.758;2022-08-03T09:10:20;101572.03;;;27.75;53.53
71485;BME280;59300;52.074;4.758;2022-08-03T09:13:22;101570.16;;;27.66;52.92
71485;BME280;59300;52.074;4.758;2022-08-03T09:16:24;101571.19;;;27.84;52.72
71485;BME280;59300;52.074;4.758;2022-08-03T09:19:26;101576.06;;;28.00;53.23
71485;BME280;59300;52.074;4.758;2022-08-03T09:22:27;101580.44;;;28.32;51.42
71485;BME280;59300;52.074;4.758;2022-08-03T09:25:47;101580.09;;;28.06;52.28
71485;BME280;59300;52.074;4.758;2022-08-03T09:29:08;101588.44;;;28.34;50.72
71485;BME280;59300;52.074;4.758;2022-08-03T09:32:21;101585.56;;;28.35;50.03
71485;BME280;59300;52.074;4.758;2022-08-03T09:35:26;101571.53;;;29.09;48.89
71485;BME280;59300;52.074;4.758;2022-08-03T09:39:00;101582.72;;;28.37;49.56
71485;BME280;59300;52.074;4.758;2022-08-03T09:42:07;101566.94;;;29.09;47.79
71485;BME280;59300;52.074;4.758;2022-08-03T09:45:24;101583.03;;;28.54;49.33
71485;BME280;59300;52.074;4.758;2022-08-03T09:48:27;101575.50;;;29.90;46.02
71485;BME280;59300;52.074;4.758;2022-08-03T09:51:29;101574.03;;;29.68;48.09
71485;BME280;59300;52.074;4.758;2022-08-03T09:54:51;101572.25;;;29.49;47.71
71485;BME280;59300;52.074;4.758;2022-08-03T09:58:03;101566.72;;;29.68;47.61
71485;BME280;59300;52.074;4.758;2022-08-03T10:01:05;101582.66;;;29.16;47.25
71485;BME280;59300;52.074;4.758;2022-08-03T10:04:12;101568.53;;;29.02;48.78
71485;BME280;59300;52.074;4.758;2022-08-03T10:07:13;101564.28;;;28.90;48.88
71485;BME280;59300;52.074;4.758;2022-08-03T10:10:16;101567.84;;;28.80;47.17
71485;BME280;59300;52.074;4.758;2022-08-03T10:13:32;101564.72;;;28.16;51.00
71485;BME280;59300;52.074;4.758;2022-08-03T10:16:36;101561.28;;;28.34;50.14
71485;BME280;59300;52.074;4.758;2022-08-03T10:19:38;101562.44;;;28.51;48.99
71485;BME280;59300;52.074;4.758;2022-08-03T10:22:40;101563.28;;;28.42;47.30
71485;BME280;59300;52.074;4.758;2022-08-03T10:25:43;101565.59;;;28.56;48.51
71485;BME280;59300;52.074;4.758;2022-08-03T10:28:49;101563.84;;;28.94;47.93
71485;BME280;59300;52.074;4.758;2022-08-03T10:31:55;101568.28;;;29.43;46.82
71485;BME280;59300;52.074;4.758;2022-08-03T10:35:07;101563.13;;;29.02;46.96
71485;BME280;59300;52.074;4.758;2022-08-03T10:38:25;101560.22;;;30.07;45.23
71485;BME280;59300;52.074;4.758;2022-08-03T10:41:37;101556.41;;;30.36;43.20
71485;BME280;59300;52.074;4.758;2022-08-03T10:44:41;101560.97;;;29.71;45.82
71485;BME280;59300;52.074;4.758;2022-08-03T10:47:42;101563.22;;;29.10;46.80
71485;BME280;59300;52.074;4.758;2022-08-03T10:50:45;101556.97;;;29.48;45.83
71485;BME280;59300;52.074;4.758;2022-08-03T10:53:48;101559.38;;;29.51;44.82
71485;BME280;59300;52.074;4.758;2022-08-03T10:56:56;101558.97;;;29.73;45.45
71485;BME280;59300;52.074;4.758;2022-08-03T10:59:59;101544.56;;;29.25;45.61
71485;BME280;59300;52.074;4.758;2022-08-03T11:03:06;101542.72;;;30.10;43.95
71485;BME280;59300;52.074;4.758;2022-08-03T11:06:16;101548.38;;;29.70;43.79
71485;BME280;59300;52.074;4.758;2022-08-03T11:09:18;101536.91;;;29.49;44.48
71485;BME280;59300;52.074;4.758;2022-08-03T11:12:26;101542.44;;;29.57;44.91
71485;BME280;59300;52.074;4.758;2022-08-03T11:15:33;101538.88;;;29.84;43.96
71485;BME280;59300;52.074;4.758;2022-08-03T11:18:35;101539.38;;;29.32;46.14
71485;BME280;59300;52.074;4.758;2022-08-03T11:24:56;101545.88;;;29.59;43.53
71485;BME280;59300;52.074;4.758;2022-08-03T11:28:24;101547.31;;;29.81;43.85
71485;BME280;59300;52.074;4.758;2022-08-03T11:38:18;101542.00;;;30.08;42.44
71485;BME280;59300;52.074;4.758;2022-08-03T11:41:32;101535.19;;;30.03;42.34
71485;BME280;59300;52.074;4.758;2022-08-03T11:44:45;101543.13;;;30.15;44.10
71485;BME280;59300;52.074;4.758;2022-08-03T11:47:48;101540.38;;;29.97;43.06
71485;BME280;59300;52.074;4.758;2022-08-03T11:50:54;101539.72;;;29.57;43.78
71485;BME280;59300;52.074;4.758;2022-08-03T11:54:01;101536.03;;;29.76;43.35
71485;BME280;59300;52.074;4.758;2022-08-03T11:57:03;101535.25;;;30.12;42.75
71485;BME280;59300;52.074;4.758;2022-08-03T12:00:30;101532.00;;;30.26;42.48
71485;BME280;59300;52.074;4.758;2022-08-03T12:03:33;101537.38;;;30.54;42.64
71485;BME280;59300;52.074;4.758;2022-08-03T12:06:35;101536.31;;;30.73;42.71
71485;BME280;59300;52.074;4.758;2022-08-03T12:09:36;101539.78;;;30.84;41.34
71485;BME280;59300;52.074;4.758;2022-08-03T12:12:39;101532.94;;;30.79;41.77
71485;BME280;59300;52.074;4.758;2022-08-03T12:16:05;101526.94;;;31.02;43.30
71485;BME280;59300;52.074;4.758;2022-08-03T12:19:07;101533.13;;;31.39;41.00
71485;BME280;59300;52.074;4.758;2022-08-03T12:22:08;101528.34;;;31.06;41.82
71485;BME280;59300;52.074;4.758;2022-08-03T12:25:22;101535.56;;;30.09;43.55
71485;BME280;59300;52.074;4.758;2022-08-03T12:28:46;101518.38;;;29.62;44.40
71485;BME280;59300;52.074;4.758;2022-08-03T12:31:50;101533.97;;;29.88;44.17
71485;BME280;59300;52.074;4.758;2022-08-03T12:34:52;101528.34;;;29.71;45.35
71485;BME280;59300;52.074;4.758;2022-08-03T12:37:53;101529.06;;;29.92;45.11
71485;BME280;59300;52.074;4.758;2022-08-03T12:41:06;101523.78;;;29.72;44.99
71485;BME280;59300;52.074;4.758;2022-08-03T12:44:08;101522.34;;;30.14;43.63
71485;BME280;59300;52.074;4.758;2022-08-03T12:47:11;101542.13;;;30.16;43.99
71485;BME280;59300;52.074;4.758;2022-08-03T12:50:23;101526.00;;;30.59;43.71
71485;BME280;59300;52.074;4.758;2022-08-03T12:53:28;101521.91;;;30.63;43.39
71485;BME280;59300;52.074;4.758;2022-08-03T12:56:29;101524.84;;;30.25;43.76
71485;BME280;59300;52.074;4.758;2022-08-03T13:02:42;101529.97;;;29.64;43.86
71485;BME280;59300;52.074;4.758;2022-08-03T13:05:46;101523.56;;;29.55;43.84
71485;BME280;59300;52.074;4.758;2022-08-03T13:08:49;101522.97;;;30.08;43.28
71485;BME280;59300;52.074;4.758;2022-08-03T13:12:04;101518.63;;;30.15;44.16
71485;BME280;59300;52.074;4.758;2022-08-03T13:15:08;101528.22;;;29.91;44.29
71485;BME280;59300;52.074;4.758;2022-08-03T13:18:10;101523.97;;;30.07;43.10
71485;BME280;59300;52.074;4.758;2022-08-03T13:21:13;101523.06;;;30.16;42.98
71485;BME280;59300;52.074;4.758;2022-08-03T13:24:15;101524.66;;;30.09;43.38
71485;BME280;59300;52.074;4.758;2022-08-03T13:27:17;101516.69;;;30.70;42.62
71485;BME280;59300;52.074;4.758;2022-08-03T13:30:39;101505.88;;;30.78;42.76
71485;BME280;59300;52.074;4.758;2022-08-03T13:33:40;101511.13;;;31.06;41.25
71485;BME280;59300;52.074;4.758;2022-08-03T13:36:42;101516.09;;;31.10;41.66
71485;BME280;59300;52.074;4.758;2022-08-03T13:40:05;101511.13;;;31.06;41.12
71485;BME280;59300;52.074;4.758;2022-08-03T13:43:07;101499.06;;;30.82;40.83
71485;BME280;59300;52.074;4.758;2022-08-03T13:46:09;101504.59;;;30.99;40.50
71485;BME280;59300;52.074;4.758;2022-08-03T13:49:10;101503.81;;;31.41;39.88
71485;BME280;59300;52.074;4.758;2022-08-03T13:52:12;101511.22;;;31.22;40.39
71485;BME280;59300;52.074;4.758;2022-08-03T13:55:13;101510.44;;;31.04;40.85
71485;BME280;59300;52.074;4.758;2022-08-03T13:58:15;101519.78;;;31.28;40.14
71485;BME280;59300;52.074;4.758;2022-08-03T14:01:17;101503.91;;;30.97;39.91
71485;BME280;59300;52.074;4.758;2022-08-03T14:04:39;101500.25;;;30.79;41.54
71485;BME280;59300;52.074;4.758;2022-08-03T14:07:40;101505.94;;;30.94;41.92
71485;BME280;59300;52.074;4.758;2022-08-03T14:10:43;101502.22;;;31.73;40.45
71485;BME280;59300;52.074;4.758;2022-08-03T14:13:45;101505.84;;;31.39;40.55
71485;BME280;59300;52.074;4.758;2022-08-03T14:16:46;101501.63;;;31.53;40.59
71485;BME280;59300;52.074;4.758;2022-08-03T14:19:49;101498.16;;;31.34;40.43
71485;BME280;59300;52.074;4.758;2022-08-03T14:22:56;101498.16;;;31.34;40.80
71485;BME280;59300;52.074;4.758;2022-08-03T14:25:58;101500.28;;;31.49;40.60
71485;BME280;59300;52.074;4.758;2022-08-03T14:29:00;101489.97;;;31.00;42.82
71485;BME280;59300;52.074;4.758;2022-08-03T14:32:01;101484.69;;;30.72;42.58
71485;BME280;59300;52.074;4.758;2022-08-03T14:35:13;101485.19;;;30.93;40.88
71485;BME280;59300;52.074;4.758;2022-08-03T14:38:15;101487.06;;;30.67;41.81
71485;BME280;59300;52.074;4.758;2022-08-03T14:41:16;101489.47;;;31.31;40.40
71485;BME280;59300;52.074;4.758;2022-08-03T14:44:22;101479.59;;;31.03;42.40
71485;BME280;59300;52.074;4.758;2022-08-03T14:47:24;101478.13;;;30.56;42.82
71485;BME280;59300;52.074;4.758;2022-08-03T14:50:26;101468.16;;;30.47;42.68
71485;BME280;59300;52.074;4.758;2022-08-03T14:53:41;101475.16;;;30.68;42.82
71485;BME280;59300;52.074;4.758;2022-08-03T14:56:42;101475.16;;;30.68;42.22
71485;BME280;59300;52.074;4.758;2022-08-03T14:59:44;101479.66;;;30.85;42.04
71485;BME280;59300;52.074;4.758;2022-08-03T15:03:01;101472.22;;;30.95;43.15
71485;BME280;59300;52.074;4.758;2022-08-03T15:06:02;101475.41;;;30.56;43.08
71485;BME280;59300;52.074;4.758;2022-08-03T15:09:04;101475.06;;;30.59;42.67
71485;BME280;59300;52.074;4.758;2022-08-03T15:12:25;101468.72;;;30.77;42.65
71485;BME280;59300;52.074;4.758;2022-08-03T15:15:27;101465.81;;;30.52;42.82
71485;BME280;59300;52.074;4.758;2022-08-03T15:18:28;101466.91;;;30.59;43.43
71485;BME280;59300;52.074;4.758;2022-08-03T15:21:30;101461.78;;;30.56;43.56
71485;BME280;59300;52.074;4.758;2022-08-03T15:24:48;101465.50;;;30.82;42.73
71485;BME280;59300;52.074;4.758;2022-08-03T15:27:51;101457.19;;;30.57;42.58
71485;BME280;59300;52.074;4.758;2022-08-03T15:31:05;101455.09;;;30.77;43.23
71485;BME280;59300;52.074;4.758;2022-08-03T15:34:06;101455.44;;;30.29;44.76
71485;BME280;59300;52.074;4.758;2022-08-03T15:37:08;101464.59;;;30.73;43.79
71485;BME280;59300;52.074;4.758;2022-08-03T15:40:17;101450.50;;;30.51;44.16
71485;BME280;59300;52.074;4.758;2022-08-03T15:43:19;101453.53;;;30.48;44.59
71485;BME280;59300;52.074;4.758;2022-08-03T15:46:21;101451.66;;;30.67;43.63
71485;BME280;59300;52.074;4.758;2022-08-03T15:49:30;101447.81;;;31.12;41.88
71485;BME280;59300;52.074;4.758;2022-08-03T15:52:34;101448.34;;;30.81;42.40
71485;BME280;59300;52.074;4.758;2022-08-03T15:55:36;101440.78;;;30.75;43.88
71485;BME280;59300;52.074;4.758;2022-08-03T15:58:38;101440.53;;;30.60;43.85
71485;BME280;59300;52.074;4.758;2022-08-03T16:01:59;101434.84;;;30.79;43.45
71485;BME280;59300;52.074;4.758;2022-08-03T16:05:01;101436.16;;;30.67;41.63
71485;BME280;59300;52.074;4.758;2022-08-03T16:08:03;101432.91;;;30.45;42.73
71485;BME280;59300;52.074;4.758;2022-08-03T16:11:08;101432.72;;;30.39;42.43
71485;BME280;59300;52.074;4.758;2022-08-03T16:14:10;101432.75;;;30.47;43.00
71485;BME280;59300;52.074;4.758;2022-08-03T16:17:32;101426.16;;;30.49;41.65
71485;BME280;59300;52.074;4.758;2022-08-03T16:20:33;101424.63;;;30.29;43.15